Time;durP1;ratioP1;P1;durP2;ratioP2;P2;SDS_P1;SDS_P2;PMS_P1;PMS_P2;Temp;Humidity;BMP_temperature;BMP_pressure;BME280_temperature;BME280_humidity;BME280_pressure;Samples;Min_cycle;Max_cycle;Signal;HPM_P1;HPM_P2
2022/10/18 00:01:05;;;;;;;5.60;4.37;;;20.60;66.50;;;;;;5044636;28;20533;-50
2022/10/18 00:03:32;;;;;;;5.93;4.20;;;20.60;65.90;;;;;;5045598;28;21880;-50
2022/10/18 00:05:58;;;;;;;13.57;5.37;;;20.30;66.80;;;;;;5049980;28;20569;-50
2022/10/18 00:08:24;;;;;;;5.97;4.47;;;19.90;69.10;;;;;;5051092;28;20522;-53
2022/10/18 00:10:50;;;;;;;7.03;4.87;;;20.00;68.80;;;;;;5042413;28;20278;-51
2022/10/18 00:13:16;;;;;;;8.07;4.93;;;20.10;68.60;;;;;;5041475;28;20483;-50
2022/10/18 00:15:53;;;;;;;6.23;4.60;;;20.20;67.50;;;;;;5046423;28;20503;-51
2022/10/18 00:18:19;;;;;;;7.50;5.03;;;20.30;67.40;;;;;;5048702;28;20279;-53
2022/10/18 00:20:45;;;;;;;7.70;5.10;;;20.20;67.80;;;;;;5046670;28;20565;-53
2022/10/18 00:23:10;;;;;;;8.10;5.13;;;20.10;68.50;;;;;;5045051;28;20843;-50
2022/10/18 00:25:36;;;;;;;8.30;4.03;;;20.00;69.90;;;;;;5046822;28;20200;-50
2022/10/18 00:28:01;;;;;;;6.53;4.60;;;20.00;69.40;;;;;;5050149;28;20712;-52
2022/10/18 00:30:27;;;;;;;7.23;4.20;;;20.10;69.20;;;;;;5045863;28;20197;-49
2022/10/18 00:32:53;;;;;;;5.80;4.97;;;20.00;69.20;;;;;;5044107;28;20227;-53
2022/10/18 00:35:18;;;;;;;9.23;4.57;;;20.10;69.00;;;;;;5040595;28;20671;-53
2022/10/18 00:37:44;;;;;;;5.83;3.97;;;20.30;68.30;;;;;;5048024;28;20243;-50
2022/10/18 00:40:10;;;;;;;5.73;4.57;;;20.30;67.70;;;;;;5048736;28;20640;-50
2022/10/18 00:42:36;;;;;;;6.67;5.27;;;20.30;67.40;;;;;;5045976;28;20267;-49
2022/10/18 00:45:05;;;;;;;8.13;4.80;;;20.30;67.30;;;;;;5046359;28;20671;-54
2022/10/18 00:47:33;;;;;;;8.90;4.60;;;20.40;67.20;;;;;;5047706;28;20478;-50
2022/10/18 00:50:01;;;;;;;6.73;4.70;;;20.40;66.80;;;;;;5046906;28;20534;-52
2022/10/18 00:52:34;;;;;;;4.73;4.33;;;20.30;67.20;;;;;;5041768;28;20493;-54
2022/10/18 00:54:59;;;;;;;12.03;6.53;;;20.30;66.80;;;;;;5048983;28;20451;-54
2022/10/18 00:57:25;;;;;;;10.83;4.50;;;20.50;66.30;;;;;;5046677;28;20462;-53
2022/10/18 00:59:53;;;;;;;10.20;5.00;;;20.50;66.30;;;;;;5044862;28;20283;-54
2022/10/18 01:02:18;;;;;;;12.70;4.63;;;20.40;66.30;;;;;;5047510;28;20453;-53
2022/10/18 01:04:47;;;;;;;6.60;4.80;;;20.40;66.80;;;;;;5037470;28;20527;-53
2022/10/18 01:07:24;;;;;;;7.40;4.80;;;20.50;66.70;;;;;;5044766;28;20211;-50
2022/10/18 01:10:11;;;;;;;6.40;4.73;;;20.50;66.80;;;;;;5043424;28;20434;-53
2022/10/18 01:12:55;;;;;;;9.13;6.50;;;20.60;66.40;;;;;;5045334;28;20558;-50
2022/10/18 01:15:20;;;;;;;12.93;4.83;;;20.70;66.00;;;;;;5048569;28;20447;-53
2022/10/18 01:18:10;;;;;;;12.30;4.60;;;20.70;65.80;;;;;;5050702;28;20451;-53
2022/10/18 01:21:14;;;;;;;5.43;4.27;;;20.60;66.50;;;;;;5043223;28;20193;-51
2022/10/18 01:23:48;;;;;;;3.93;3.53;;;20.50;67.00;;;;;;5039176;28;20454;-53
2022/10/18 01:26:38;;;;;;;6.03;4.80;;;20.60;66.90;;;;;;5045495;28;20798;-52
2022/10/18 01:29:22;;;;;;;9.73;4.13;;;20.50;66.90;;;;;;5042240;28;20444;-54
2022/10/18 01:31:57;;;;;;;6.20;4.67;;;20.30;67.10;;;;;;5044859;28;20451;-54
2022/10/18 01:34:24;;;;;;;7.27;4.60;;;20.10;68.90;;;;;;5030418;28;20540;-54
2022/10/18 01:36:52;;;;;;;9.17;4.53;;;20.10;69.30;;;;;;5046374;28;20511;-54
2022/10/18 01:39:24;;;;;;;9.13;4.30;;;20.10;69.30;;;;;;5050428;28;20450;-50
2022/10/18 01:41:52;;;;;;;5.03;4.17;;;20.20;68.80;;;;;;5039476;28;20452;-54
2022/10/18 01:44:22;;;;;;;8.33;4.40;;;20.20;69.40;;;;;;5040157;28;20446;-53
2022/10/18 01:46:50;;;;;;;10.23;4.30;;;20.20;69.10;;;;;;5038193;28;20439;-53
2022/10/18 01:49:15;;;;;;;11.03;4.67;;;20.30;68.60;;;;;;5042827;28;20713;-54
2022/10/18 01:51:41;;;;;;;6.67;4.60;;;20.30;68.40;;;;;;5042572;28;20439;-53
2022/10/18 01:54:08;;;;;;;5.93;4.37;;;20.40;68.50;;;;;;5045841;28;20228;-53
2022/10/18 01:57:00;;;;;;;5.87;4.60;;;20.40;68.00;;;;;;5044691;28;20233;-53
2022/10/18 01:59:50;;;;;;;8.80;4.50;;;20.30;67.70;;;;;;5046384;28;20452;-52
2022/10/18 02:02:31;;;;;;;12.97;4.60;;;20.20;68.40;;;;;;5048870;28;20526;-54
2022/10/18 02:05:16;;;;;;;8.40;4.40;;;20.30;68.10;;;;;;5045057;28;20447;-53
2022/10/18 02:08:02;;;;;;;5.97;4.33;;;20.40;68.20;;;;;;5040044;28;20476;-53
2022/10/18 02:10:38;;;;;;;4.97;4.43;;;20.50;67.50;;;;;;5039684;28;20788;-54
2022/10/18 02:13:05;;;;;;;7.10;4.33;;;20.50;67.50;;;;;;5046545;28;20633;-53
2022/10/18 02:15:36;;;;;;;7.30;4.40;;;20.50;66.80;;;;;;5035238;28;20463;-52
2022/10/18 02:18:07;;;;;;;8.50;4.40;;;20.60;66.60;;;;;;5050293;28;20490;-52
2022/10/18 02:20:35;;;;;;;10.70;4.70;;;20.70;65.90;;;;;;5050032;28;20499;-54
2022/10/18 02:23:02;;;;;;;4.50;4.10;;;20.80;65.50;;;;;;5042373;28;20774;-50
2022/10/18 02:25:30;;;;;;;4.77;3.70;;;20.80;65.20;;;;;;5042634;28;20431;-52
2022/10/18 02:27:57;;;;;;;6.80;4.00;;;20.80;65.40;;;;;;5043289;28;20457;-49
2022/10/18 02:30:31;;;;;;;6.97;4.10;;;20.90;65.10;;;;;;5050882;28;20438;-53
2022/10/18 02:33:10;;;;;;;6.90;4.40;;;20.90;64.90;;;;;;5038714;28;20650;-52
2022/10/18 02:35:43;;;;;;;10.53;5.37;;;21.00;65.00;;;;;;5045994;28;20963;-49
2022/10/18 02:38:11;;;;;;;9.07;5.33;;;21.00;64.50;;;;;;5042418;28;20483;-49
2022/10/18 02:40:36;;;;;;;7.93;4.13;;;20.90;64.40;;;;;;5045341;28;20455;-53
2022/10/18 02:43:05;;;;;;;6.20;4.53;;;20.80;65.20;;;;;;5040213;28;20976;-49
2022/10/18 02:45:31;;;;;;;6.97;4.60;;;20.80;64.60;;;;;;5049676;28;20263;-50
2022/10/18 02:47:57;;;;;;;8.63;4.10;;;20.90;64.40;;;;;;5048545;28;20482;-51
2022/10/18 02:50:22;;;;;;;7.70;4.27;;;20.80;64.00;;;;;;5039648;28;20522;-50
2022/10/18 02:52:48;;;;;;;7.70;4.20;;;20.80;64.30;;;;;;5047873;28;20212;-50
2022/10/18 02:55:15;;;;;;;7.37;3.87;;;20.80;63.90;;;;;;5049022;28;20556;-50
2022/10/18 02:57:41;;;;;;;7.03;4.23;;;20.80;64.00;;;;;;5045750;28;20200;-49
2022/10/18 03:00:07;;;;;;;5.90;4.67;;;20.90;63.90;;;;;;5046562;28;20446;-49
2022/10/18 03:02:33;;;;;;;8.17;4.60;;;20.90;63.70;;;;;;5042223;28;20192;-50
2022/10/18 03:04:58;;;;;;;9.23;4.80;;;20.90;63.80;;;;;;5048235;28;20491;-50
2022/10/18 03:07:24;;;;;;;8.50;5.23;;;20.90;64.00;;;;;;5047382;28;20270;-50
2022/10/18 03:09:50;;;;;;;6.63;4.30;;;20.90;63.90;;;;;;5047945;28;20196;-51
2022/10/18 03:12:15;;;;;;;6.60;3.70;;;20.90;63.70;;;;;;5048220;28;20652;-51
2022/10/18 03:14:41;;;;;;;5.80;4.23;;;20.80;64.30;;;;;;5042263;28;20224;-50
2022/10/18 03:17:07;;;;;;;6.23;4.80;;;20.80;64.60;;;;;;5044354;28;20188;-49
2022/10/18 03:19:32;;;;;;;8.33;3.97;;;20.70;64.70;;;;;;5035923;28;20219;-50
2022/10/18 03:21:58;;;;;;;10.83;4.10;;;20.60;65.20;;;;;;5037228;28;20192;-52
2022/10/18 03:24:24;;;;;;;7.27;3.70;;;20.60;65.30;;;;;;5040129;28;20185;-52
2022/10/18 03:26:49;;;;;;;14.00;5.23;;;20.60;65.50;;;;;;5041162;28;20208;-51
2022/10/18 03:29:15;;;;;;;4.50;4.10;;;20.50;65.50;;;;;;5044137;28;20195;-49
2022/10/18 03:31:40;;;;;;;6.10;4.43;;;20.50;65.60;;;;;;5042507;28;20233;-50
2022/10/18 03:34:06;;;;;;;7.53;4.70;;;20.50;65.60;;;;;;5047897;28;20228;-50
2022/10/18 03:36:33;;;;;;;6.00;4.63;;;20.40;66.10;;;;;;5048292;28;20369;-53
2022/10/18 03:38:58;;;;;;;11.60;4.03;;;20.30;66.50;;;;;;5049457;28;20652;-51
2022/10/18 03:41:24;;;;;;;6.47;4.80;;;20.20;67.00;;;;;;5046600;28;20438;-49
2022/10/18 03:43:49;;;;;;;7.30;4.10;;;20.10;66.70;;;;;;5046515;28;20654;-49
2022/10/18 03:46:15;;;;;;;10.07;4.37;;;20.00;67.60;;;;;;5045773;28;20200;-50
2022/10/18 03:48:40;;;;;;;10.20;4.47;;;20.00;67.70;;;;;;5047567;28;20281;-52
2022/10/18 03:51:06;;;;;;;8.13;4.17;;;19.80;67.80;;;;;;5047181;28;20200;-49
2022/10/18 03:53:31;;;;;;;7.50;4.30;;;19.80;67.80;;;;;;5043310;28;20235;-52
2022/10/18 03:55:57;;;;;;;6.30;4.50;;;19.80;68.30;;;;;;5044540;28;20697;-49
2022/10/18 03:58:23;;;;;;;4.50;3.30;;;19.70;68.60;;;;;;5043778;28;20713;-51
2022/10/18 04:00:53;;;;;;;5.83;4.43;;;19.70;68.80;;;;;;5043604;28;20192;-54
2022/10/18 04:03:21;;;;;;;7.00;4.57;;;19.60;69.00;;;;;;5044295;28;20580;-49
2022/10/18 04:05:47;;;;;;;6.70;5.27;;;19.60;68.90;;;;;;5041828;28;20532;-50
2022/10/18 04:08:13;;;;;;;7.30;4.60;;;19.60;68.90;;;;;;5047142;28;20439;-50
2022/10/18 04:10:39;;;;;;;5.73;4.47;;;19.60;69.00;;;;;;5048563;28;20450;-49
2022/10/18 04:13:06;;;;;;;5.47;4.07;;;19.50;69.10;;;;;;5049218;28;20486;-52
2022/10/18 04:15:32;;;;;;;5.20;4.17;;;19.60;69.10;;;;;;5048298;28;20470;-49
2022/10/18 04:17:57;;;;;;;5.00;4.30;;;19.60;68.80;;;;;;5048588;28;20544;-50
2022/10/18 04:20:24;;;;;;;6.93;4.10;;;19.60;68.90;;;;;;5048489;28;20558;-51
2022/10/18 04:22:50;;;;;;;7.50;3.90;;;19.70;68.00;;;;;;5046848;28;20226;-49
2022/10/18 04:25:16;;;;;;;16.83;4.50;;;19.70;67.60;;;;;;5040207;28;20443;-49
2022/10/18 04:27:42;;;;;;;5.10;3.83;;;19.60;67.40;;;;;;5044826;28;20447;-49
2022/10/18 04:30:08;;;;;;;7.10;4.40;;;19.50;67.70;;;;;;5041745;28;20189;-52
2022/10/18 04:32:34;;;;;;;4.90;3.93;;;19.60;67.50;;;;;;5041723;28;20446;-50
2022/10/18 04:35:01;;;;;;;6.00;4.60;;;19.50;67.80;;;;;;5049506;28;20451;-50
2022/10/18 04:37:26;;;;;;;6.77;3.60;;;19.40;68.60;;;;;;5046091;28;20311;-49
2022/10/18 04:39:52;;;;;;;4.30;3.87;;;19.30;68.20;;;;;;5046312;28;20477;-52
2022/10/18 04:42:18;;;;;;;5.00;4.37;;;19.00;69.70;;;;;;5047779;28;20272;-49
2022/10/18 04:44:43;;;;;;;4.80;3.70;;;19.20;69.60;;;;;;5048505;28;20193;-49
2022/10/18 04:47:09;;;;;;;6.97;3.87;;;19.00;69.50;;;;;;5045288;28;20475;-50
2022/10/18 04:49:34;;;;;;;4.33;3.90;;;19.00;70.00;;;;;;5044909;28;20189;-52
2022/10/18 04:52:00;;;;;;;4.63;4.10;;;19.00;70.10;;;;;;5041972;28;20250;-49
2022/10/18 04:54:26;;;;;;;5.40;3.83;;;18.70;71.20;;;;;;5043231;28;20259;-50
2022/10/18 04:56:51;;;;;;;7.30;4.43;;;18.80;70.50;;;;;;5042512;28;20340;-50
2022/10/18 04:59:17;;;;;;;4.37;3.97;;;19.10;69.40;;;;;;5046100;28;20196;-49
2022/10/18 05:01:42;;;;;;;11.37;3.70;;;19.40;68.10;;;;;;5045317;28;20196;-50
2022/10/18 05:04:08;;;;;;;4.20;3.40;;;19.70;67.10;;;;;;5045700;28;20569;-50
2022/10/18 05:06:34;;;;;;;5.83;4.03;;;19.70;66.30;;;;;;5048665;28;20293;-49
2022/10/18 05:08:59;;;;;;;4.53;3.73;;;19.70;66.10;;;;;;5045114;28;20189;-51
2022/10/18 05:11:25;;;;;;;4.13;3.50;;;19.80;65.50;;;;;;5045551;28;20188;-49
2022/10/18 05:13:51;;;;;;;5.30;3.30;;;19.90;65.00;;;;;;5042778;28;20224;-50
2022/10/18 05:16:17;;;;;;;7.97;3.77;;;20.00;64.90;;;;;;5041160;28;20192;-52
2022/10/18 05:18:42;;;;;;;5.97;3.70;;;19.90;64.60;;;;;;5048946;28;20527;-50
2022/10/18 05:21:08;;;;;;;4.03;3.60;;;19.80;65.00;;;;;;5039977;28;20211;-49
2022/10/18 05:23:34;;;;;;;3.80;3.50;;;19.80;65.10;;;;;;5044755;28;20208;-50
2022/10/18 05:26:02;;;;;;;11.50;4.57;;;19.70;65.80;;;;;;5047754;28;20930;-48
2022/10/18 05:28:27;;;;;;;5.40;3.40;;;20.00;69.80;;;;;;5049341;28;20185;-51
2022/10/18 05:30:53;;;;;;;5.33;3.33;;;20.40;68.90;;;;;;5045956;28;20443;-52
2022/10/18 05:33:18;;;;;;;5.43;4.63;;;20.80;67.30;;;;;;5046856;28;20228;-49
2022/10/18 05:35:44;;;;;;;7.20;3.67;;;21.10;65.50;;;;;;5042718;28;20237;-49
2022/10/18 05:38:09;;;;;;;11.83;4.17;;;21.10;61.50;;;;;;5027162;28;20228;-50
2022/10/18 05:40:38;;;;;;;5.53;4.53;;;21.20;61.90;;;;;;5045213;28;20246;-53
2022/10/18 05:43:03;;;;;;;7.47;4.30;;;21.40;61.80;;;;;;5040973;28;20543;-49
2022/10/18 05:45:29;;;;;;;5.63;4.23;;;21.40;61.00;;;;;;5041167;28;20488;-50
2022/10/18 05:47:54;;;;;;;5.30;3.60;;;21.50;60.10;;;;;;5044209;28;20675;-49
2022/10/18 05:50:20;;;;;;;6.60;3.47;;;21.60;59.70;;;;;;5039242;28;20193;-49
2022/10/18 05:52:45;;;;;;;4.13;3.73;;;21.70;59.40;;;;;;5050710;28;20213;-50
2022/10/18 05:55:11;;;;;;;5.33;4.00;;;21.70;59.30;;;;;;5049540;28;20611;-49
2022/10/18 05:57:37;;;;;;;7.43;4.53;;;21.70;59.40;;;;;;5048240;28;20196;-49
2022/10/18 06:00:03;;;;;;;5.93;4.00;;;21.90;59.30;;;;;;5048966;28;20719;-49
2022/10/18 06:02:28;;;;;;;9.17;4.33;;;21.90;59.10;;;;;;5046928;28;20547;-50
2022/10/18 06:04:54;;;;;;;8.40;3.83;;;21.80;59.00;;;;;;5047120;28;20439;-50
2022/10/18 06:07:19;;;;;;;6.10;4.10;;;21.90;58.90;;;;;;5048894;28;20227;-50
2022/10/18 06:09:45;;;;;;;4.40;3.67;;;22.00;58.90;;;;;;5050757;28;20214;-48
2022/10/18 06:12:11;;;;;;;4.60;3.53;;;21.90;58.60;;;;;;5051466;28;20656;-49
2022/10/18 06:14:37;;;;;;;5.90;3.90;;;21.80;58.70;;;;;;5042028;28;20586;-51
2022/10/18 06:17:03;;;;;;;8.63;4.30;;;21.80;58.80;;;;;;5046203;28;20192;-49
2022/10/18 06:19:28;;;;;;;7.90;3.70;;;21.80;58.80;;;;;;5039792;28;20235;-49
2022/10/18 06:21:54;;;;;;;5.93;3.47;;;21.90;58.90;;;;;;5048232;28;20858;-49
2022/10/18 06:24:20;;;;;;;6.27;4.90;;;21.90;58.60;;;;;;5049824;28;20228;-49
2022/10/18 06:26:46;;;;;;;7.03;4.00;;;21.80;58.70;;;;;;5039201;28;20208;-52
2022/10/18 06:29:12;;;;;;;7.67;3.93;;;22.00;58.60;;;;;;5043596;28;20449;-51
2022/10/18 06:31:38;;;;;;;12.73;3.67;;;22.00;58.30;;;;;;5047285;28;20447;-50
2022/10/18 06:34:04;;;;;;;4.43;4.03;;;22.00;58.20;;;;;;5040448;28;20491;-53
2022/10/18 06:36:29;;;;;;;7.23;3.47;;;22.10;58.20;;;;;;5045657;28;20235;-49
2022/10/18 06:38:55;;;;;;;6.63;3.60;;;22.20;58.10;;;;;;5048510;28;20219;-49
2022/10/18 06:41:21;;;;;;;12.57;4.20;;;22.20;58.00;;;;;;5046085;28;20242;-48
2022/10/18 06:43:48;;;;;;;6.50;4.00;;;22.30;58.10;;;;;;5033949;28;20494;-49
2022/10/18 06:46:14;;;;;;;6.53;4.83;;;22.40;58.00;;;;;;5048154;28;20446;-50
2022/10/18 06:48:40;;;;;;;6.07;4.47;;;22.60;57.80;;;;;;5048479;28;20485;-51
2022/10/18 06:51:06;;;;;;;9.77;3.80;;;22.70;57.60;;;;;;5050517;28;20563;-49
2022/10/18 06:53:35;;;;;;;4.60;4.10;;;22.90;57.50;;;;;;5050378;28;20255;-50
2022/10/18 06:56:07;;;;;;;14.30;4.00;;;23.10;57.30;;;;;;5049264;28;20773;-49
2022/10/18 06:58:34;;;;;;;6.13;4.00;;;23.30;57.10;;;;;;5049206;28;20442;-52
2022/10/18 07:01:08;;;;;;;6.43;3.70;;;23.30;56.60;;;;;;5044007;28;20474;-49
2022/10/18 07:03:34;;;;;;;3.90;3.40;;;23.40;56.40;;;;;;5037610;28;20952;-51
2022/10/18 07:06:04;;;;;;;6.43;4.07;;;23.40;56.50;;;;;;5036564;28;20971;-54
2022/10/18 07:08:30;;;;;;;4.00;3.70;;;23.30;56.40;;;;;;5038492;28;20482;-53
2022/10/18 07:10:56;;;;;;;6.10;3.80;;;23.40;56.40;;;;;;5045574;28;20478;-54
2022/10/18 07:13:22;;;;;;;3.80;3.50;;;23.40;56.40;;;;;;5042054;28;20205;-49
2022/10/18 07:15:48;;;;;;;5.50;4.40;;;23.40;56.40;;;;;;5046034;28;20200;-48
2022/10/18 07:18:14;;;;;;;5.13;3.80;;;23.40;56.40;;;;;;5044401;28;20860;-52
2022/10/18 07:20:40;;;;;;;6.67;3.60;;;23.40;56.40;;;;;;5043670;28;20242;-53
2022/10/18 07:23:07;;;;;;;4.50;3.47;;;23.40;56.40;;;;;;5027833;28;20446;-52
2022/10/18 07:25:33;;;;;;;5.23;4.27;;;23.50;56.70;;;;;;5048144;28;20205;-51
2022/10/18 07:27:59;;;;;;;4.33;3.77;;;23.40;56.70;;;;;;5047259;28;20468;-50
2022/10/18 07:30:25;;;;;;;6.00;4.20;;;23.40;56.80;;;;;;5047607;28;20443;-51
2022/10/18 07:32:51;;;;;;;5.80;3.63;;;23.40;56.90;;;;;;5047359;28;20299;-49
2022/10/18 07:35:16;;;;;;;10.33;4.17;;;23.40;57.10;;;;;;5049413;28;20216;-49
2022/10/18 07:37:42;;;;;;;5.60;3.93;;;23.40;57.20;;;;;;5046518;28;20385;-49
2022/10/18 07:40:08;;;;;;;5.70;3.97;;;23.40;57.10;;;;;;5043435;28;20205;-52
2022/10/18 07:42:34;;;;;;;9.50;3.37;;;23.50;57.10;;;;;;5041856;28;20243;-52
2022/10/18 07:45:00;;;;;;;10.10;4.60;;;23.50;57.10;;;;;;5043670;28;20482;-49
2022/10/18 07:47:26;;;;;;;4.97;3.93;;;23.50;57.00;;;;;;5036081;28;20966;-53
2022/10/18 07:49:51;;;;;;;4.27;3.60;;;23.60;57.20;;;;;;5035263;28;20234;-53
2022/10/18 07:52:17;;;;;;;8.00;3.90;;;23.60;57.80;;;;;;5039928;28;20268;-50
2022/10/18 07:54:42;;;;;;;6.00;3.67;;;23.60;57.30;;;;;;5036719;28;20239;-49
2022/10/18 07:57:08;;;;;;;3.63;3.33;;;23.60;57.50;;;;;;5043138;28;20189;-52
2022/10/18 07:59:33;;;;;;;5.80;4.10;;;23.60;57.60;;;;;;5044711;28;20200;-50
2022/10/18 08:01:59;;;;;;;7.50;3.60;;;23.60;57.80;;;;;;5043558;28;20193;-54
2022/10/18 08:04:25;;;;;;;4.90;4.40;;;23.60;58.20;;;;;;5047788;28;20204;-53
2022/10/18 08:06:50;;;;;;;4.90;4.40;;;23.40;58.30;;;;;;5047493;28;20200;-49
2022/10/18 08:09:16;;;;;;;8.00;4.30;;;23.40;58.50;;;;;;5039955;28;20664;-49
2022/10/18 08:11:41;;;;;;;5.13;4.30;;;23.40;58.50;;;;;;5040884;28;20198;-53
2022/10/18 08:14:07;;;;;;;7.97;4.30;;;23.50;58.20;;;;;;5041354;28;20251;-52
2022/10/18 08:16:32;;;;;;;4.73;4.10;;;23.60;58.00;;;;;;5042032;28;20189;-53
2022/10/18 08:18:58;;;;;;;11.80;4.30;;;23.50;58.00;;;;;;5046701;28;20198;-49
2022/10/18 08:21:24;;;;;;;5.40;3.87;;;23.50;58.10;;;;;;5047996;28;20195;-54
2022/10/18 08:23:50;;;;;;;4.23;3.90;;;23.50;58.00;;;;;;5047853;28;20204;-53
2022/10/18 08:26:19;;;;;;;4.87;3.53;;;23.70;57.50;;;;;;5040703;28;20914;-53
2022/10/18 08:28:45;;;;;;;4.80;3.83;;;23.60;57.30;;;;;;5045866;28;20279;-53
2022/10/18 08:31:13;;;;;;;4.43;4.10;;;23.80;57.00;;;;;;5046108;28;20450;-49
2022/10/18 08:33:39;;;;;;;6.47;3.83;;;23.80;56.70;;;;;;5044438;28;20487;-52
2022/10/18 08:36:07;;;;;;;8.70;4.50;;;23.90;56.70;;;;;;5040676;28;20534;-51
2022/10/18 08:38:35;;;;;;;6.53;4.50;;;24.00;57.00;;;;;;5046422;28;20288;-52
2022/10/18 08:41:28;;;;;;;5.40;3.80;;;24.10;57.00;;;;;;5048097;28;20474;-52
2022/10/18 08:44:02;;;;;;;4.57;3.90;;;24.10;56.80;;;;;;5048610;28;21044;-53
2022/10/18 08:46:29;;;;;;;10.73;4.50;;;24.20;56.50;;;;;;5046598;28;20443;-52
2022/10/18 08:48:56;;;;;;;4.70;3.93;;;24.30;56.50;;;;;;5049376;28;20978;-53
2022/10/18 08:51:30;;;;;;;4.07;3.67;;;24.40;56.40;;;;;;5051249;28;20938;-53
2022/10/18 08:54:06;;;;;;;5.40;4.03;;;24.50;56.00;;;;;;5044935;28;20490;-52
2022/10/18 08:56:33;;;;;;;3.83;3.43;;;24.50;56.00;;;;;;5039500;28;20434;-53
2022/10/18 08:59:02;;;;;;;5.47;4.27;;;24.60;55.90;;;;;;5051028;28;20493;-49
2022/10/18 09:01:49;;;;;;;4.37;3.97;;;24.70;56.20;;;;;;5051204;28;20534;-52
2022/10/18 09:04:17;;;;;;;6.57;5.00;;;24.70;56.00;;;;;;5040307;28;20420;-50
2022/10/18 09:07:01;;;;;;;10.93;3.87;;;24.80;55.30;;;;;;5030558;28;20993;-53
2022/10/18 09:09:44;;;;;;;7.90;3.63;;;24.90;55.00;;;;;;5046641;28;21071;-49
2022/10/18 09:12:42;;;;;;;6.67;3.70;;;25.00;54.70;;;;;;5051942;28;20446;-53
2022/10/18 09:15:28;;;;;;;6.97;5.27;;;25.00;54.80;;;;;;5051025;28;21034;-54
2022/10/18 09:18:26;;;;;;;5.87;4.90;;;25.00;54.60;;;;;;5050948;28;20451;-53
2022/10/18 09:21:35;;;;;;;5.60;4.53;;;25.10;55.80;;;;;;5034083;28;20467;-52
2022/10/18 09:24:14;;;;;;;10.70;7.43;;;25.20;55.30;;;;;;5031040;28;20501;-53
2022/10/18 09:26:45;;;;;;;14.17;9.13;;;25.00;54.80;;;;;;5045541;28;20454;-53
2022/10/18 09:29:25;;;;;;;9.60;6.20;;;24.90;55.30;;;;;;5044393;28;20459;-54
2022/10/18 09:32:32;;;;;;;6.10;5.50;;;24.90;55.60;;;;;;5040530;28;20462;-52
2022/10/18 09:35:10;;;;;;;8.20;5.70;;;24.90;55.90;;;;;;5041649;28;20490;-53
2022/10/18 09:37:36;;;;;;;6.43;4.70;;;24.90;56.00;;;;;;5044036;28;20478;-52
2022/10/18 09:40:13;;;;;;;5.43;4.60;;;25.00;56.50;;;;;;5043767;28;20436;-54
2022/10/18 09:42:42;;;;;;;12.10;5.87;;;25.10;57.20;;;;;;5036565;28;20500;-54
2022/10/18 09:45:30;;;;;;;10.23;7.00;;;25.20;56.70;;;;;;5049679;28;20522;-51
2022/10/18 09:48:07;;;;;;;9.13;6.40;;;25.40;56.60;;;;;;5042005;28;20478;-52
2022/10/18 09:50:56;;;;;;;11.40;6.10;;;25.50;55.10;;;;;;5049141;28;20459;-53
2022/10/18 09:53:32;;;;;;;5.90;3.60;;;25.70;54.30;;;;;;5020296;28;20549;-53
2022/10/18 09:56:19;;;;;;;5.57;4.50;;;25.90;53.60;;;;;;5034846;28;20445;-52
2022/10/18 09:58:50;;;;;;;4.87;4.27;;;26.00;52.60;;;;;;5047004;28;20473;-53
2022/10/18 10:01:28;;;;;;;4.30;3.90;;;26.00;53.20;;;;;;5044881;28;20997;-54
2022/10/18 10:03:54;;;;;;;3.60;3.30;;;25.90;53.50;;;;;;5050407;28;20446;-54
2022/10/18 10:06:26;;;;;;;4.70;3.60;;;26.00;53.50;;;;;;5045947;28;20434;-51
2022/10/18 10:09:04;;;;;;;3.70;3.27;;;26.20;54.30;;;;;;5042312;28;20196;-54
2022/10/18 10:11:44;;;;;;;3.73;3.30;;;26.50;53.40;;;;;;5039907;28;21060;-53
2022/10/18 10:14:20;;;;;;;4.03;3.73;;;26.90;51.90;;;;;;5048000;28;20543;-54
2022/10/18 10:16:52;;;;;;;6.63;3.27;;;27.00;51.50;;;;;;5043761;28;20466;-54
2022/10/18 10:19:33;;;;;;;6.27;3.10;;;26.90;51.10;;;;;;5037112;28;20451;-53
2022/10/18 10:22:02;;;;;;;5.30;3.40;;;26.90;51.60;;;;;;5033468;28;20495;-53
2022/10/18 10:24:49;;;;;;;5.67;3.37;;;27.00;51.60;;;;;;5046223;28;20788;-53
2022/10/18 10:27:29;;;;;;;4.30;3.37;;;26.90;51.00;;;;;;5047926;28;20447;-53
2022/10/18 10:30:16;;;;;;;9.73;4.00;;;26.90;51.80;;;;;;5048400;28;20830;-54
2022/10/18 10:32:47;;;;;;;3.97;3.37;;;27.10;51.50;;;;;;5044702;28;20453;-53
2022/10/18 10:35:35;;;;;;;4.57;3.13;;;27.20;51.20;;;;;;5040198;28;20530;-53
2022/10/18 10:38:02;;;;;;;7.73;3.10;;;27.40;51.20;;;;;;5046090;28;20483;-54
2022/10/18 10:40:51;;;;;;;5.13;3.50;;;27.50;51.00;;;;;;5045285;28;20441;-54
2022/10/18 10:43:28;;;;;;;5.60;3.03;;;27.70;50.50;;;;;;5044392;28;21099;-50
2022/10/18 10:46:08;;;;;;;8.13;3.33;;;27.90;50.50;;;;;;5040773;28;20834;-51
2022/10/18 10:48:50;;;;;;;8.30;2.93;;;28.20;50.10;;;;;;5041359;28;20444;-53
2022/10/18 10:51:37;;;;;;;6.63;3.60;;;28.30;49.30;;;;;;5045256;28;20471;-51
2022/10/18 10:54:04;;;;;;;3.23;2.93;;;28.50;48.60;;;;;;5043359;28;20487;-50
2022/10/18 10:56:36;;;;;;;4.37;3.17;;;28.60;48.20;;;;;;5041043;28;20447;-54
2022/10/18 10:59:17;;;;;;;3.57;3.27;;;28.70;48.70;;;;;;5048993;28;20427;-53
2022/10/18 11:01:44;;;;;;;5.00;3.23;;;28.80;48.00;;;;;;5047345;28;20447;-54
2022/10/18 11:04:26;;;;;;;7.30;3.17;;;29.00;47.70;;;;;;5044787;28;20459;-54
2022/10/18 11:07:13;;;;;;;4.97;3.70;;;29.20;47.60;;;;;;5049087;28;20477;-54
2022/10/18 11:09:49;;;;;;;3.80;3.50;;;29.30;46.90;;;;;;5047032;28;20512;-53
2022/10/18 11:12:21;;;;;;;3.03;2.73;;;29.30;46.50;;;;;;5042535;28;20450;-54
2022/10/18 11:14:54;;;;;;;3.80;3.40;;;29.40;46.60;;;;;;5041690;28;20498;-54
2022/10/18 11:17:38;;;;;;;3.67;2.93;;;29.50;46.30;;;;;;5044990;28;20443;-55
2022/10/18 11:20:09;;;;;;;3.60;3.20;;;29.50;46.50;;;;;;5049858;28;20476;-53
2022/10/18 11:22:51;;;;;;;3.43;3.13;;;29.60;46.40;;;;;;5044016;28;20443;-52
2022/10/18 11:25:17;;;;;;;5.77;3.30;;;29.50;45.70;;;;;;5041940;28;20430;-54
2022/10/18 11:27:59;;;;;;;6.10;3.20;;;29.20;46.50;;;;;;5046072;28;20473;-54
2022/10/18 11:30:54;;;;;;;4.43;3.50;;;29.30;46.50;;;;;;5046432;28;20689;-54
2022/10/18 11:33:47;;;;;;;7.67;3.40;;;29.30;46.70;;;;;;5034522;28;20534;-58
2022/10/18 11:36:34;;;;;;;4.00;3.47;;;29.30;46.70;;;;;;5046012;28;20553;-55
2022/10/18 11:39:12;;;;;;;6.03;3.53;;;29.30;46.90;;;;;;5049283;28;20446;-54
2022/10/18 11:41:48;;;;;;;4.70;3.67;;;29.30;46.90;;;;;;5039217;28;20442;-54
2022/10/18 11:44:39;;;;;;;4.07;3.67;;;29.30;46.80;;;;;;5046604;28;20854;-53
2022/10/18 11:47:13;;;;;;;3.97;3.67;;;29.30;46.50;;;;;;5043401;28;20962;-52
2022/10/18 11:49:47;;;;;;;5.57;3.50;;;29.30;46.40;;;;;;5039202;28;20503;-54
2022/10/18 11:52:22;;;;;;;6.07;3.93;;;29.20;46.50;;;;;;5035269;28;21418;-57
2022/10/18 11:55:15;;;;;;;6.87;3.80;;;29.10;46.60;;;;;;5030229;28;20569;-53
2022/10/18 11:58:07;;;;;;;5.27;3.67;;;29.00;46.70;;;;;;5042256;28;20455;-54
2022/10/18 12:00:39;;;;;;;3.70;3.23;;;28.90;47.00;;;;;;5045588;28;20473;-54
2022/10/18 12:03:18;;;;;;;9.43;3.90;;;28.90;47.30;;;;;;5043496;28;20444;-53
2022/10/18 12:05:47;;;;;;;8.77;3.60;;;28.80;47.60;;;;;;5040408;28;20818;-56
2022/10/18 12:08:22;;;;;;;5.37;3.43;;;28.90;47.60;;;;;;5048557;28;20451;-53
2022/10/18 12:10:51;;;;;;;7.50;4.40;;;29.00;47.40;;;;;;5048113;28;20446;-54
2022/10/18 12:13:33;;;;;;;4.63;3.23;;;29.00;47.60;;;;;;5048658;28;20978;-52
2022/10/18 12:16:02;;;;;;;5.87;3.40;;;28.80;47.20;;;;;;5044030;28;20459;-55
2022/10/18 12:18:30;;;;;;;5.03;3.10;;;28.50;47.60;;;;;;5049544;28;20446;-54
2022/10/18 12:20:58;;;;;;;6.80;3.33;;;28.40;47.80;;;;;;5043490;28;20446;-53
2022/10/18 12:23:51;;;;;;;4.60;3.43;;;28.30;48.30;;;;;;5045901;28;20485;-56
2022/10/18 12:26:18;;;;;;;3.73;2.40;;;28.30;48.60;;;;;;5045990;28;20450;-54
2022/10/18 12:29:06;;;;;;;2.90;2.70;;;28.30;48.60;;;;;;5046942;28;20451;-54
2022/10/18 12:31:39;;;;;;;4.33;2.93;;;28.20;48.10;;;;;;5048735;28;20801;-54
2022/10/18 12:34:20;;;;;;;3.23;2.87;;;28.10;48.60;;;;;;5045332;28;20485;-54
2022/10/18 12:37:03;;;;;;;5.17;3.80;;;28.10;49.50;;;;;;5047521;28;20482;-55
2022/10/18 12:39:40;;;;;;;4.80;3.37;;;28.30;49.70;;;;;;5051138;28;20441;-54
2022/10/18 12:42:18;;;;;;;5.63;3.33;;;28.30;49.90;;;;;;5045508;28;20842;-54
2022/10/18 12:44:45;;;;;;;4.37;3.00;;;28.30;49.50;;;;;;5049095;28;20484;-52
2022/10/18 12:47:21;;;;;;;8.30;3.10;;;28.40;49.30;;;;;;5045345;28;20449;-55
2022/10/18 12:49:56;;;;;;;2.70;2.50;;;28.40;48.80;;;;;;5040740;28;20508;-53
2022/10/18 12:52:32;;;;;;;6.17;2.90;;;28.50;48.60;;;;;;5027198;28;20978;-51
2022/10/18 12:55:23;;;;;;;3.60;2.97;;;28.50;48.70;;;;;;5047753;28;20497;-52
2022/10/18 12:57:51;;;;;;;8.47;3.30;;;28.60;48.50;;;;;;5049165;28;20795;-50
2022/10/18 13:00:29;;;;;;;3.60;2.63;;;28.40;48.90;;;;;;5047904;28;20493;-52
2022/10/18 13:03:15;;;;;;;9.10;4.33;;;28.40;48.90;;;;;;5047662;28;20470;-52
2022/10/18 13:05:46;;;;;;;4.73;2.80;;;28.30;49.30;;;;;;5052648;28;20455;-53